createdAt,value
2023-04-27T18:26:00.866Z,74.10
2023-04-27T18:28:28.749Z,75.20
2023-04-27T18:30:56.609Z,75.20
2023-04-27T18:33:24.743Z,74.80
2023-04-27T18:35:52.680Z,75.30
2023-04-27T18:38:20.526Z,75.30
2023-04-27T18:40:48.705Z,75.80
2023-04-27T18:43:17.901Z,76.50
2023-04-27T18:45:45.900Z,76.20
2023-04-27T18:48:13.807Z,76.60
2023-04-27T18:50:42.123Z,76.80
2023-04-27T18:53:09.956Z,76.20
2023-04-27T18:55:39.411Z,76.60
2023-04-27T18:58:07.338Z,77.90
2023-04-27T19:00:38.033Z,76.70
2023-04-27T19:03:06.296Z,76.80
2023-04-27T19:05:34.503Z,76.90
2023-04-27T19:08:02.687Z,76.70
2023-04-27T19:10:30.993Z,76.00
2023-04-27T19:12:58.913Z,76.80
2023-04-27T19:15:27.032Z,76.30
2023-04-27T19:18:03.052Z,76.70
2023-04-27T19:20:37.675Z,76.40
2023-04-27T19:23:07.825Z,76.30
2023-04-27T19:25:36.083Z,76.20
2023-04-27T19:28:05.722Z,76.60
2023-04-27T19:30:33.667Z,76.80
2023-04-27T19:33:04.293Z,76.40
2023-04-27T19:35:32.342Z,77.10
2023-04-27T19:38:00.781Z,76.40
2023-04-27T19:40:28.811Z,77.40
2023-04-27T19:42:56.758Z,76.70
2023-04-27T19:45:24.625Z,76.90
2023-04-27T19:47:54.069Z,77.20
2023-04-27T19:50:23.589Z,76.60
2023-04-27T19:52:51.453Z,76.90
2023-04-27T19:55:19.550Z,75.90
2023-04-27T19:57:47.690Z,76.60
2023-04-27T20:00:15.980Z,76.50
2023-04-27T20:02:44.021Z,76.90
2023-04-27T20:05:13.480Z,77.20
2023-04-27T20:07:43.236Z,77.00
2023-04-27T20:10:11.336Z,76.60
2023-04-27T20:12:54.388Z,77.90
2023-04-27T20:15:22.972Z,77.70
2023-04-27T20:17:50.892Z,76.90
2023-04-27T20:20:19.154Z,77.90
2023-04-27T20:22:48.552Z,77.50
2023-04-27T20:25:16.439Z,77.60
2023-04-27T20:27:44.335Z,77.80
2023-04-27T20:30:12.906Z,78.00
2023-04-27T20:32:41.057Z,78.00
2023-04-27T20:35:11.406Z,77.80
2023-04-27T20:37:43.543Z,77.80
2023-04-27T20:40:17.384Z,77.80
2023-04-27T20:42:45.700Z,77.40
2023-04-27T20:45:13.683Z,77.70
2023-04-27T20:47:41.994Z,77.40
2023-04-27T20:50:10.359Z,78.00
2023-04-27T20:52:38.386Z,76.40
2023-04-27T20:55:07.496Z,77.40
2023-04-27T20:57:36.858Z,77.30
2023-04-27T21:00:05.369Z,77.30
2023-04-27T21:02:33.299Z,76.90
2023-04-27T21:05:01.645Z,76.90
2023-04-27T21:07:29.666Z,76.80
2023-04-27T21:09:57.737Z,77.60
2023-04-27T21:12:25.670Z,77.80
2023-04-27T21:14:54.882Z,77.80
2023-04-27T21:17:22.896Z,77.50
2023-04-27T21:19:50.860Z,78.00
2023-04-27T21:22:18.732Z,78.00
2023-04-27T21:24:47.315Z,77.90
2023-04-27T21:27:15.150Z,77.90
2023-04-27T21:29:43.028Z,77.40
2023-04-27T21:32:12.247Z,78.30
2023-04-27T21:34:40.355Z,77.70
2023-04-27T21:37:08.214Z,77.70
2023-04-27T21:39:36.108Z,77.70
2023-04-27T21:42:04.029Z,78.20
2023-04-27T21:44:31.869Z,77.80
2023-04-27T21:47:01.131Z,77.70
2023-04-27T21:49:30.446Z,77.90
2023-04-27T21:51:58.287Z,78.40
2023-04-27T21:54:26.113Z,78.20
2023-04-27T21:56:53.962Z,78.10
2023-04-27T21:59:22.355Z,78.00
2023-04-27T22:01:50.369Z,78.30
2023-04-27T22:04:18.564Z,78.10
2023-04-27T22:06:48.334Z,78.00
2023-04-27T22:09:16.473Z,78.00
2023-04-27T22:11:44.590Z,78.00
2023-04-27T22:14:12.746Z,78.00
2023-04-27T22:16:40.968Z,77.70
2023-04-27T22:19:09.149Z,78.10
2023-04-27T22:21:37.451Z,77.70
2023-04-27T22:24:07.370Z,78.50
2023-04-27T22:26:35.243Z,77.90
2023-04-27T22:29:03.096Z,78.30
2023-04-27T22:31:32.482Z,78.20
